TAF and METAR

Decoding for American and Canadian METARs and TAFs is not fully implemented.

Could not understand the following METAR

MMNL 292140Z 12006KT 8SM SCT020 BKN100 BKN220 30/19 A3005 RMK 8/572

TAF for Quetzalcóatl International Airport

TAF MMNL 291741Z 2918/3018 04010KT P6SM BKN020 BKN080 FM292200 03015KT P6SM BKN020CB OVC080 TEMPO 3000/3004 5SM TSRA FM300900 03010KT 4SM HZ OVC010 FM301500 02010KT 3SM HZ SCT015 BKN080
Report created 29. mai 19:41

between 29. mai 20:00 - 30. mai 20:00

wind 10 knots from NE (040°)